sensor_id;sensor_type;location;lat;lon;timestamp;temperature;humidity
5842;DHT22;2947;52.276;9.946;2023-03-11T00:00:20;0.70;99.90
5842;DHT22;2947;52.276;9.946;2023-03-11T00:02:49;0.70;99.90
5842;DHT22;2947;52.276;9.946;2023-03-11T00:05:18;0.70;99.90
5842;DHT22;2947;52.276;9.946;2023-03-11T00:07:48;0.70;99.90
5842;DHT22;2947;52.276;9.946;2023-03-11T00:10:15;0.70;99.90
5842;DHT22;2947;52.276;9.946;2023-03-11T00:12:46;0.70;99.90
5842;DHT22;2947;52.276;9.946;2023-03-11T00:15:12;0.70;99.90
5842;DHT22;2947;52.276;9.946;2023-03-11T00:17:38;0.70;99.90
5842;DHT22;2947;52.276;9.946;2023-03-11T00:20:06;0.70;99.90
5842;DHT22;2947;52.276;9.946;2023-03-11T00:22:33;0.70;99.90
5842;DHT22;2947;52.276;9.946;2023-03-11T00:24:58;0.60;99.90
5842;DHT22;2947;52.276;9.946;2023-03-11T00:27:24;0.70;99.90
5842;DHT22;2947;52.276;9.946;2023-03-11T00:29:50;0.70;99.90
5842;DHT22;2947;52.276;9.946;2023-03-11T00:32:16;0.60;99.90
5842;DHT22;2947;52.276;9.946;2023-03-11T00:34:42;0.60;99.90
5842;DHT22;2947;52.276;9.946;2023-03-11T00:37:07;0.60;99.90
5842;DHT22;2947;52.276;9.946;2023-03-11T00:39:33;0.70;99.90
5842;DHT22;2947;52.276;9.946;2023-03-11T00:41:59;0.70;99.90
5842;DHT22;2947;52.276;9.946;2023-03-11T00:44:25;0.70;99.90
5842;DHT22;2947;52.276;9.946;2023-03-11T00:46:50;0.70;99.90
5842;DHT22;2947;52.276;9.946;2023-03-11T00:49:16;0.70;99.90
5842;DHT22;2947;52.276;9.946;2023-03-11T00:51:42;0.70;99.90
5842;DHT22;2947;52.276;9.946;2023-03-11T00:54:08;0.70;99.90
5842;DHT22;2947;52.276;9.946;2023-03-11T00:56:34;0.70;99.90
5842;DHT22;2947;52.276;9.946;2023-03-11T00:59:00;0.70;99.90
5842;DHT22;2947;52.276;9.946;2023-03-11T01:01:26;0.60;99.90
5842;DHT22;2947;52.276;9.946;2023-03-11T01:03:51;0.60;99.90
5842;DHT22;2947;52.276;9.946;2023-03-11T01:06:17;0.70;99.90
5842;DHT22;2947;52.276;9.946;2023-03-11T01:08:44;0.70;99.90
5842;DHT22;2947;52.276;9.946;2023-03-11T01:11:09;0.70;99.90
5842;DHT22;2947;52.276;9.946;2023-03-11T01:13:35;0.70;99.90
5842;DHT22;2947;52.276;9.946;2023-03-11T01:16:01;0.70;99.90
5842;DHT22;2947;52.276;9.946;2023-03-11T01:18:27;0.70;99.90
5842;DHT22;2947;52.276;9.946;2023-03-11T01:20:53;0.70;99.90
5842;DHT22;2947;52.276;9.946;2023-03-11T01:23:19;0.60;99.90
5842;DHT22;2947;52.276;9.946;2023-03-11T01:25:46;0.60;99.90
5842;DHT22;2947;52.276;9.946;2023-03-11T01:28:14;0.60;99.90
5842;DHT22;2947;52.276;9.946;2023-03-11T01:30:40;0.60;99.90
5842;DHT22;2947;52.276;9.946;2023-03-11T01:33:10;0.60;99.90
5842;DHT22;2947;52.276;9.946;2023-03-11T01:35:39;1.10;99.90
5842;DHT22;2947;52.276;9.946;2023-03-11T01:38:06;0.60;99.90
5842;DHT22;2947;52.276;9.946;2023-03-11T01:40:39;0.60;99.90
5842;DHT22;2947;52.276;9.946;2023-03-11T01:48:32;0.00;99.90
5842;DHT22;2947;52.276;9.946;2023-03-11T01:50:58;1.10;99.90
5842;DHT22;2947;52.276;9.946;2023-03-11T01:53:25;0.50;99.90
5842;DHT22;2947;52.276;9.946;2023-03-11T01:55:50;0.60;99.90
5842;DHT22;2947;52.276;9.946;2023-03-11T01:58:20;0.50;99.90
5842;DHT22;2947;52.276;9.946;2023-03-11T02:00:50;0.40;99.90
5842;DHT22;2947;52.276;9.946;2023-03-11T02:03:23;0.60;99.90
5842;DHT22;2947;52.276;9.946;2023-03-11T02:05:53;0.60;99.90
5842;DHT22;2947;52.276;9.946;2023-03-11T02:08:20;0.60;99.90
5842;DHT22;2947;52.276;9.946;2023-03-11T02:10:47;0.60;99.90
5842;DHT22;2947;52.276;9.946;2023-03-11T02:13:15;0.50;99.90
5842;DHT22;2947;52.276;9.946;2023-03-11T02:15:41;0.60;99.90
5842;DHT22;2947;52.276;9.946;2023-03-11T02:18:07;0.60;99.90
5842;DHT22;2947;52.276;9.946;2023-03-11T02:24:09;0.60;99.90
5842;DHT22;2947;52.276;9.946;2023-03-11T02:29:28;0.60;99.90
5842;DHT22;2947;52.276;9.946;2023-03-11T02:31:56;0.60;99.90
5842;DHT22;2947;52.276;9.946;2023-03-11T02:34:34;0.60;99.90
5842;DHT22;2947;52.276;9.946;2023-03-11T02:37:04;0.60;99.90
5842;DHT22;2947;52.276;9.946;2023-03-11T02:39:39;0.60;99.90
5842;DHT22;2947;52.276;9.946;2023-03-11T02:42:28;0.50;99.90
5842;DHT22;2947;52.276;9.946;2023-03-11T02:45:17;0.50;99.90
5842;DHT22;2947;52.276;9.946;2023-03-11T02:47:45;0.50;99.90
5842;DHT22;2947;52.276;9.946;2023-03-11T02:50:14;0.50;99.90
5842;DHT22;2947;52.276;9.946;2023-03-11T02:52:41;0.60;99.90
5842;DHT22;2947;52.276;9.946;2023-03-11T02:55:07;0.50;99.90
5842;DHT22;2947;52.276;9.946;2023-03-11T02:57:36;0.50;99.90
5842;DHT22;2947;52.276;9.946;2023-03-11T03:00:04;0.50;99.90
5842;DHT22;2947;52.276;9.946;2023-03-11T03:02:36;0.50;99.90
5842;DHT22;2947;52.276;9.946;2023-03-11T03:05:02;0.50;99.90
5842;DHT22;2947;52.276;9.946;2023-03-11T03:07:28;0.50;99.90
5842;DHT22;2947;52.276;9.946;2023-03-11T03:09:54;0.50;99.90
5842;DHT22;2947;52.276;9.946;2023-03-11T03:12:20;0.50;99.90
5842;DHT22;2947;52.276;9.946;2023-03-11T03:14:46;0.60;99.90
5842;DHT22;2947;52.276;9.946;2023-03-11T03:17:13;0.50;99.90
5842;DHT22;2947;52.276;9.946;2023-03-11T03:19:39;0.60;99.90
5842;DHT22;2947;52.276;9.946;2023-03-11T03:22:04;0.50;99.90
5842;DHT22;2947;52.276;9.946;2023-03-11T03:24:30;0.60;99.90
5842;DHT22;2947;52.276;9.946;2023-03-11T03:26:56;0.60;99.90
5842;DHT22;2947;52.276;9.946;2023-03-11T03:29:22;0.50;99.90
5842;DHT22;2947;52.276;9.946;2023-03-11T03:31:47;-0.10;99.90
5842;DHT22;2947;52.276;9.946;2023-03-11T03:34:13;0.50;99.90
5842;DHT22;2947;52.276;9.946;2023-03-11T03:36:39;0.50;99.90
5842;DHT22;2947;52.276;9.946;2023-03-11T03:39:05;0.50;99.90
5842;DHT22;2947;52.276;9.946;2023-03-11T03:41:30;0.50;99.90
5842;DHT22;2947;52.276;9.946;2023-03-11T03:43:56;0.50;99.90
5842;DHT22;2947;52.276;9.946;2023-03-11T03:46:22;0.60;99.90
5842;DHT22;2947;52.276;9.946;2023-03-11T03:48:48;0.50;99.90
5842;DHT22;2947;52.276;9.946;2023-03-11T03:51:15;1.60;99.90
5842;DHT22;2947;52.276;9.946;2023-03-11T03:53:41;0.50;99.90
5842;DHT22;2947;52.276;9.946;2023-03-11T03:56:10;0.50;99.90
5842;DHT22;2947;52.276;9.946;2023-03-11T03:58:37;0.50;99.90
5842;DHT22;2947;52.276;9.946;2023-03-11T04:01:04;0.50;99.90
5842;DHT22;2947;52.276;9.946;2023-03-11T04:03:30;0.50;99.90
5842;DHT22;2947;52.276;9.946;2023-03-11T04:06:15;0.50;99.90
5842;DHT22;2947;52.276;9.946;2023-03-11T04:08:42;0.50;99.90
5842;DHT22;2947;52.276;9.946;2023-03-11T04:11:08;0.50;99.90
5842;DHT22;2947;52.276;9.946;2023-03-11T04:13:34;0.50;99.90
5842;DHT22;2947;52.276;9.946;2023-03-11T04:16:03;0.50;99.90
5842;DHT22;2947;52.276;9.946;2023-03-11T04:18:29;0.50;99.90
5842;DHT22;2947;52.276;9.946;2023-03-11T04:20:55;0.50;99.90
5842;DHT22;2947;52.276;9.946;2023-03-11T04:23:20;0.40;99.90
5842;DHT22;2947;52.276;9.946;2023-03-11T04:25:47;0.50;99.90
5842;DHT22;2947;52.276;9.946;2023-03-11T04:28:13;0.50;99.90
5842;DHT22;2947;52.276;9.946;2023-03-11T04:30:39;0.50;99.90
5842;DHT22;2947;52.276;9.946;2023-03-11T04:33:05;0.50;99.90
5842;DHT22;2947;52.276;9.946;2023-03-11T04:35:31;0.50;99.90
5842;DHT22;2947;52.276;9.946;2023-03-11T04:37:57;0.50;99.90
5842;DHT22;2947;52.276;9.946;2023-03-11T04:40:24;0.50;99.90
5842;DHT22;2947;52.276;9.946;2023-03-11T04:42:50;0.50;99.90
5842;DHT22;2947;52.276;9.946;2023-03-11T04:45:18;0.40;99.90
5842;DHT22;2947;52.276;9.946;2023-03-11T04:47:50;0.50;99.90
5842;DHT22;2947;52.276;9.946;2023-03-11T04:50:17;0.40;99.90
5842;DHT22;2947;52.276;9.946;2023-03-11T04:52:44;0.50;99.90
5842;DHT22;2947;52.276;9.946;2023-03-11T04:55:10;0.40;99.90
5842;DHT22;2947;52.276;9.946;2023-03-11T04:57:38;0.40;99.90
5842;DHT22;2947;52.276;9.946;2023-03-11T05:00:05;0.40;99.90
5842;DHT22;2947;52.276;9.946;2023-03-11T05:02:34;0.40;99.90
5842;DHT22;2947;52.276;9.946;2023-03-11T05:05:00;0.40;99.90
5842;DHT22;2947;52.276;9.946;2023-03-11T05:07:26;0.40;99.90
5842;DHT22;2947;52.276;9.946;2023-03-11T05:09:51;0.40;99.90
5842;DHT22;2947;52.276;9.946;2023-03-11T05:12:17;0.40;99.90
5842;DHT22;2947;52.276;9.946;2023-03-11T05:14:43;0.40;99.90
5842;DHT22;2947;52.276;9.946;2023-03-11T05:17:08;0.30;99.90
5842;DHT22;2947;52.276;9.946;2023-03-11T05:19:36;0.30;99.90
5842;DHT22;2947;52.276;9.946;2023-03-11T05:22:03;0.30;99.90
5842;DHT22;2947;52.276;9.946;2023-03-11T05:24:29;0.30;99.90
5842;DHT22;2947;52.276;9.946;2023-03-11T05:26:55;0.30;99.90
5842;DHT22;2947;52.276;9.946;2023-03-11T05:29:22;0.30;99.90
5842;DHT22;2947;52.276;9.946;2023-03-11T05:31:48;0.20;99.90
5842;DHT22;2947;52.276;9.946;2023-03-11T05:34:15;0.30;99.90
5842;DHT22;2947;52.276;9.946;2023-03-11T05:36:41;0.30;99.90
5842;DHT22;2947;52.276;9.946;2023-03-11T05:39:07;0.30;99.90
5842;DHT22;2947;52.276;9.946;2023-03-11T05:41:33;0.30;99.90
5842;DHT22;2947;52.276;9.946;2023-03-11T05:43:58;0.30;99.90
5842;DHT22;2947;52.276;9.946;2023-03-11T05:46:25;0.30;99.90
5842;DHT22;2947;52.276;9.946;2023-03-11T05:48:51;0.30;99.90
5842;DHT22;2947;52.276;9.946;2023-03-11T05:51:17;0.20;99.90
5842;DHT22;2947;52.276;9.946;2023-03-11T05:53:45;0.30;99.90
5842;DHT22;2947;52.276;9.946;2023-03-11T05:56:14;0.30;99.90
5842;DHT22;2947;52.276;9.946;2023-03-11T05:58:40;0.30;99.90
5842;DHT22;2947;52.276;9.946;2023-03-11T06:01:10;0.30;99.90
5842;DHT22;2947;52.276;9.946;2023-03-11T06:03:38;0.30;99.90
5842;DHT22;2947;52.276;9.946;2023-03-11T06:06:06;0.30;99.90
5842;DHT22;2947;52.276;9.946;2023-03-11T06:08:33;0.30;99.90
5842;DHT22;2947;52.276;9.946;2023-03-11T06:11:01;0.30;99.90
5842;DHT22;2947;52.276;9.946;2023-03-11T06:13:36;0.50;99.90
5842;DHT22;2947;52.276;9.946;2023-03-11T06:16:03;0.30;99.90
5842;DHT22;2947;52.276;9.946;2023-03-11T06:18:29;0.70;99.90
5842;DHT22;2947;52.276;9.946;2023-03-11T06:21:00;0.30;99.90
5842;DHT22;2947;52.276;9.946;2023-03-11T06:23:27;0.30;99.90
5842;DHT22;2947;52.276;9.946;2023-03-11T06:25:57;0.30;99.90
5842;DHT22;2947;52.276;9.946;2023-03-11T06:28:25;0.30;99.90
5842;DHT22;2947;52.276;9.946;2023-03-11T06:30:51;0.30;99.90
5842;DHT22;2947;52.276;9.946;2023-03-11T06:33:17;0.30;99.90
5842;DHT22;2947;52.276;9.946;2023-03-11T06:35:43;0.30;99.90
5842;DHT22;2947;52.276;9.946;2023-03-11T06:38:09;0.30;99.90
5842;DHT22;2947;52.276;9.946;2023-03-11T06:40:36;0.30;99.90
5842;DHT22;2947;52.276;9.946;2023-03-11T06:43:02;0.30;99.90
5842;DHT22;2947;52.276;9.946;2023-03-11T06:45:28;0.30;99.90
5842;DHT22;2947;52.276;9.946;2023-03-11T06:47:53;0.30;99.90
5842;DHT22;2947;52.276;9.946;2023-03-11T06:50:19;0.40;99.90
5842;DHT22;2947;52.276;9.946;2023-03-11T06:52:47;0.40;99.90
5842;DHT22;2947;52.276;9.946;2023-03-11T06:55:13;0.40;99.90
5842;DHT22;2947;52.276;9.946;2023-03-11T06:57:39;0.40;99.90
5842;DHT22;2947;52.276;9.946;2023-03-11T07:00:05;0.50;99.90
5842;DHT22;2947;52.276;9.946;2023-03-11T07:02:32;0.40;99.90
5842;DHT22;2947;52.276;9.946;2023-03-11T07:04:57;0.40;99.90
5842;DHT22;2947;52.276;9.946;2023-03-11T07:07:23;0.40;99.90
5842;DHT22;2947;52.276;9.946;2023-03-11T07:09:49;0.50;99.90
5842;DHT22;2947;52.276;9.946;2023-03-11T07:12:14;0.50;99.90
5842;DHT22;2947;52.276;9.946;2023-03-11T07:14:42;0.50;99.90
5842;DHT22;2947;52.276;9.946;2023-03-11T07:17:07;0.50;99.90
5842;DHT22;2947;52.276;9.946;2023-03-11T07:19:33;0.50;99.90
5842;DHT22;2947;52.276;9.946;2023-03-11T07:21:58;0.50;99.90
5842;DHT22;2947;52.276;9.946;2023-03-11T07:24:24;0.50;99.90
5842;DHT22;2947;52.276;9.946;2023-03-11T07:26:50;0.50;99.90
5842;DHT22;2947;52.276;9.946;2023-03-11T07:29:15;0.60;99.90
5842;DHT22;2947;52.276;9.946;2023-03-11T07:31:41;0.60;99.90
5842;DHT22;2947;52.276;9.946;2023-03-11T07:34:10;0.60;99.90
5842;DHT22;2947;52.276;9.946;2023-03-11T07:36:38;0.60;99.90
5842;DHT22;2947;52.276;9.946;2023-03-11T07:39:05;0.50;99.90
5842;DHT22;2947;52.276;9.946;2023-03-11T07:41:32;0.50;99.90
5842;DHT22;2947;52.276;9.946;2023-03-11T07:44:00;0.70;99.90
5842;DHT22;2947;52.276;9.946;2023-03-11T07:46:28;0.60;99.90
5842;DHT22;2947;52.276;9.946;2023-03-11T07:48:54;0.60;99.90
5842;DHT22;2947;52.276;9.946;2023-03-11T07:51:23;0.60;99.90
5842;DHT22;2947;52.276;9.946;2023-03-11T07:53:52;0.60;99.90
5842;DHT22;2947;52.276;9.946;2023-03-11T07:56:19;0.70;99.90
5842;DHT22;2947;52.276;9.946;2023-03-11T07:58:47;0.70;99.90
5842;DHT22;2947;52.276;9.946;2023-03-11T08:01:15;0.70;99.90
5842;DHT22;2947;52.276;9.946;2023-03-11T08:03:44;0.70;99.90
5842;DHT22;2947;52.276;9.946;2023-03-11T08:06:20;0.70;99.90
5842;DHT22;2947;52.276;9.946;2023-03-11T08:08:49;0.70;99.90
5842;DHT22;2947;52.276;9.946;2023-03-11T08:11:16;1.50;99.90
5842;DHT22;2947;52.276;9.946;2023-03-11T08:13:44;0.70;99.90
5842;DHT22;2947;52.276;9.946;2023-03-11T08:16:12;0.70;99.90
5842;DHT22;2947;52.276;9.946;2023-03-11T08:18:39;0.70;99.90
5842;DHT22;2947;52.276;9.946;2023-03-11T08:21:06;1.00;99.90
5842;DHT22;2947;52.276;9.946;2023-03-11T08:23:37;0.70;99.90
5842;DHT22;2947;52.276;9.946;2023-03-11T08:26:04;0.80;99.90
5842;DHT22;2947;52.276;9.946;2023-03-11T08:28:31;0.70;99.90
5842;DHT22;2947;52.276;9.946;2023-03-11T08:30:58;0.80;99.90
5842;DHT22;2947;52.276;9.946;2023-03-11T08:33:23;0.80;99.90
5842;DHT22;2947;52.276;9.946;2023-03-11T08:35:49;0.90;99.90
5842;DHT22;2947;52.276;9.946;2023-03-11T08:38:15;0.80;99.90
5842;DHT22;2947;52.276;9.946;2023-03-11T08:40:40;0.90;99.90
5842;DHT22;2947;52.276;9.946;2023-03-11T08:43:06;0.90;99.90
5842;DHT22;2947;52.276;9.946;2023-03-11T08:45:32;0.90;99.90
5842;DHT22;2947;52.276;9.946;2023-03-11T08:47:58;0.90;99.90
5842;DHT22;2947;52.276;9.946;2023-03-11T08:50:24;1.00;99.90
5842;DHT22;2947;52.276;9.946;2023-03-11T08:52:50;1.00;99.90
5842;DHT22;2947;52.276;9.946;2023-03-11T08:55:16;1.00;99.90
5842;DHT22;2947;52.276;9.946;2023-03-11T08:57:49;1.10;99.90
5842;DHT22;2947;52.276;9.946;2023-03-11T09:00:16;1.10;99.90
5842;DHT22;2947;52.276;9.946;2023-03-11T09:02:42;1.10;99.90
5842;DHT22;2947;52.276;9.946;2023-03-11T09:05:08;1.20;99.90
5842;DHT22;2947;52.276;9.946;2023-03-11T09:07:34;1.80;99.90
5842;DHT22;2947;52.276;9.946;2023-03-11T09:10:02;1.20;99.90
5842;DHT22;2947;52.276;9.946;2023-03-11T09:12:28;1.30;99.90
5842;DHT22;2947;52.276;9.946;2023-03-11T09:14:55;1.30;99.90
5842;DHT22;2947;52.276;9.946;2023-03-11T09:17:21;2.00;99.90
5842;DHT22;2947;52.276;9.946;2023-03-11T09:19:47;1.40;99.90
5842;DHT22;2947;52.276;9.946;2023-03-11T09:22:13;1.40;99.80
5842;DHT22;2947;52.276;9.946;2023-03-11T09:24:39;1.40;96.10
5842;DHT22;2947;52.276;9.946;2023-03-11T09:27:05;1.50;94.50
5842;DHT22;2947;52.276;9.946;2023-03-11T09:29:31;1.50;95.20
5842;DHT22;2947;52.276;9.946;2023-03-11T09:31:56;1.50;94.30
5842;DHT22;2947;52.276;9.946;2023-03-11T09:34:22;1.50;92.30
5842;DHT22;2947;52.276;9.946;2023-03-11T09:36:48;1.60;91.50
5842;DHT22;2947;52.276;9.946;2023-03-11T09:39:14;1.60;92.20
5842;DHT22;2947;52.276;9.946;2023-03-11T09:41:55;1.70;87.70
5842;DHT22;2947;52.276;9.946;2023-03-11T09:44:41;1.70;91.00
5842;DHT22;2947;52.276;9.946;2023-03-11T09:50:23;1.80;86.90
5842;DHT22;2947;52.276;9.946;2023-03-11T09:53:19;1.80;66.20
5842;DHT22;2947;52.276;9.946;2023-03-11T09:56:10;1.90;65.90
5842;DHT22;2947;52.276;9.946;2023-03-11T09:58:42;1.90;53.80
5842;DHT22;2947;52.276;9.946;2023-03-11T10:01:26;2.00;53.40
5842;DHT22;2947;52.276;9.946;2023-03-11T10:03:56;2.70;63.10
5842;DHT22;2947;52.276;9.946;2023-03-11T10:06:27;2.10;53.30
5842;DHT22;2947;52.276;9.946;2023-03-11T10:18:57;2.40;60.70
5842;DHT22;2947;52.276;9.946;2023-03-11T10:22:00;2.50;75.00
5842;DHT22;2947;52.276;9.946;2023-03-11T10:28:09;2.60;56.90
5842;DHT22;2947;52.276;9.946;2023-03-11T10:30:25;2.60;39.80
5842;DHT22;2947;52.276;9.946;2023-03-11T10:32:57;2.70;51.30
5842;DHT22;2947;52.276;9.946;2023-03-11T10:35:46;2.80;47.40
5842;DHT22;2947;52.276;9.946;2023-03-11T10:38:38;2.90;46.00
5842;DHT22;2947;52.276;9.946;2023-03-11T10:41:14;2.90;49.20
5842;DHT22;2947;52.276;9.946;2023-03-11T10:44:03;3.00;30.90
5842;DHT22;2947;52.276;9.946;2023-03-11T10:46:30;2.90;33.90
5842;DHT22;2947;52.276;9.946;2023-03-11T10:48:56;3.10;12.50
5842;DHT22;2947;52.276;9.946;2023-03-11T10:51:24;3.20;16.60
5842;DHT22;2947;52.276;9.946;2023-03-11T10:53:54;3.30;14.20
5842;DHT22;2947;52.276;9.946;2023-03-11T10:56:31;3.30;6.60
5842;DHT22;2947;52.276;9.946;2023-03-11T10:59:03;3.40;1.00
5842;DHT22;2947;52.276;9.946;2023-03-11T11:01:55;3.50;1.00
5842;DHT22;2947;52.276;9.946;2023-03-11T11:04:39;3.60;1.00
5842;DHT22;2947;52.276;9.946;2023-03-11T11:07:34;3.70;1.00
5842;DHT22;2947;52.276;9.946;2023-03-11T11:17:56;4.00;1.00
5842;DHT22;2947;52.276;9.946;2023-03-11T11:20:24;4.10;1.00
5842;DHT22;2947;52.276;9.946;2023-03-11T11:22:54;4.10;1.00
5842;DHT22;2947;52.276;9.946;2023-03-11T11:25:30;4.10;1.00
5842;DHT22;2947;52.276;9.946;2023-03-11T11:28:02;4.30;1.00
5842;DHT22;2947;52.276;9.946;2023-03-11T11:30:52;4.40;1.00
5842;DHT22;2947;52.276;9.946;2023-03-11T11:33:30;4.50;1.00
5842;DHT22;2947;52.276;9.946;2023-03-11T11:36:00;4.50;1.00
5842;DHT22;2947;52.276;9.946;2023-03-11T11:38:28;4.60;1.00
5842;DHT22;2947;52.276;9.946;2023-03-11T11:40:57;4.70;1.00
5842;DHT22;2947;52.276;9.946;2023-03-11T11:46:10;4.60;1.00
5842;DHT22;2947;52.276;9.946;2023-03-11T11:48:57;4.90;1.00
5842;DHT22;2947;52.276;9.946;2023-03-11T11:51:44;4.90;1.00
5842;DHT22;2947;52.276;9.946;2023-03-11T11:57:07;5.10;99.90
5842;DHT22;2947;52.276;9.946;2023-03-11T11:59:38;5.20;1.00
5842;DHT22;2947;52.276;9.946;2023-03-11T12:10:57;5.50;1.00
5842;DHT22;2947;52.276;9.946;2023-03-11T12:14:07;5.40;1.00
5842;DHT22;2947;52.276;9.946;2023-03-11T12:16:41;5.60;1.00
5842;DHT22;2947;52.276;9.946;2023-03-11T12:27:52;5.80;99.90
5842;DHT22;2947;52.276;9.946;2023-03-11T12:30:27;5.90;45.80
5842;DHT22;2947;52.276;9.946;2023-03-11T12:33:08;6.00;8.00
5842;DHT22;2947;52.276;9.946;2023-03-11T12:35:38;6.00;1.00
5842;DHT22;2947;52.276;9.946;2023-03-11T12:38:05;6.20;1.00
5842;DHT22;2947;52.276;9.946;2023-03-11T12:45:59;6.40;1.00
5842;DHT22;2947;52.276;9.946;2023-03-11T12:50:55;6.10;1.00
5842;DHT22;2947;52.276;9.946;2023-03-11T12:53:47;6.10;1.00
5842;DHT22;2947;52.276;9.946;2023-03-11T12:56:51;6.00;1.00
5842;DHT22;2947;52.276;9.946;2023-03-11T13:07:58;5.80;1.00
5842;DHT22;2947;52.276;9.946;2023-03-11T13:10:37;5.80;1.00
5842;DHT22;2947;52.276;9.946;2023-03-11T13:15:50;5.80;1.00
5842;DHT22;2947;52.276;9.946;2023-03-11T13:18:23;5.80;1.00
5842;DHT22;2947;52.276;9.946;2023-03-11T13:23:39;5.80;1.00
5842;DHT22;2947;52.276;9.946;2023-03-11T13:29:03;5.70;1.00
5842;DHT22;2947;52.276;9.946;2023-03-11T13:38:37;5.60;1.00
5842;DHT22;2947;52.276;9.946;2023-03-11T13:41:18;5.60;1.00
5842;DHT22;2947;52.276;9.946;2023-03-11T13:43:50;5.60;1.00
5842;DHT22;2947;52.276;9.946;2023-03-11T13:46:30;5.40;1.00
5842;DHT22;2947;52.276;9.946;2023-03-11T13:49:05;5.50;1.00
5842;DHT22;2947;52.276;9.946;2023-03-11T13:51:40;5.40;1.00
5842;DHT22;2947;52.276;9.946;2023-03-11T13:54:21;5.30;1.00
5842;DHT22;2947;52.276;9.946;2023-03-11T13:57:28;5.20;1.00
5842;DHT22;2947;52.276;9.946;2023-03-11T13:59:55;5.20;1.00
5842;DHT22;2947;52.276;9.946;2023-03-11T14:02:24;5.10;1.00
5842;DHT22;2947;52.276;9.946;2023-03-11T14:05:03;5.10;1.00
5842;DHT22;2947;52.276;9.946;2023-03-11T14:07:33;5.00;1.00
5842;DHT22;2947;52.276;9.946;2023-03-11T14:10:28;5.00;1.00
5842;DHT22;2947;52.276;9.946;2023-03-11T14:13:28;4.80;1.00
5842;DHT22;2947;52.276;9.946;2023-03-11T14:15:59;4.80;1.00
5842;DHT22;2947;52.276;9.946;2023-03-11T14:18:43;4.80;1.00
5842;DHT22;2947;52.276;9.946;2023-03-11T14:21:19;4.90;1.00
5842;DHT22;2947;52.276;9.946;2023-03-11T14:23:48;4.80;1.00
5842;DHT22;2947;52.276;9.946;2023-03-11T14:26:21;4.80;1.00
5842;DHT22;2947;52.276;9.946;2023-03-11T14:28:50;4.90;1.00
5842;DHT22;2947;52.276;9.946;2023-03-11T14:31:33;4.80;1.00
5842;DHT22;2947;52.276;9.946;2023-03-11T14:34:20;4.80;1.00
5842;DHT22;2947;52.276;9.946;2023-03-11T14:36:49;4.70;1.00
5842;DHT22;2947;52.276;9.946;2023-03-11T14:39:27;4.70;1.00
5842;DHT22;2947;52.276;9.946;2023-03-11T14:42:16;4.70;1.00
5842;DHT22;2947;52.276;9.946;2023-03-11T14:44:58;4.60;1.00
5842;DHT22;2947;52.276;9.946;2023-03-11T14:50:24;4.50;1.00
5842;DHT22;2947;52.276;9.946;2023-03-11T14:53:02;5.00;1.00
5842;DHT22;2947;52.276;9.946;2023-03-11T14:55:49;4.50;1.00
5842;DHT22;2947;52.276;9.946;2023-03-11T14:58:32;4.50;1.00
5842;DHT22;2947;52.276;9.946;2023-03-11T15:01:10;4.50;1.00
5842;DHT22;2947;52.276;9.946;2023-03-11T15:03:44;4.50;1.00
5842;DHT22;2947;52.276;9.946;2023-03-11T15:06:22;4.40;1.00
5842;DHT22;2947;52.276;9.946;2023-03-11T15:09:07;4.30;1.00
5842;DHT22;2947;52.276;9.946;2023-03-11T15:11:45;4.30;1.00
5842;DHT22;2947;52.276;9.946;2023-03-11T15:14:28;4.30;1.00
5842;DHT22;2947;52.276;9.946;2023-03-11T15:19:49;4.20;1.00
5842;DHT22;2947;52.276;9.946;2023-03-11T15:24:57;4.30;1.00
5842;DHT22;2947;52.276;9.946;2023-03-11T15:27:36;4.30;1.00
5842;DHT22;2947;52.276;9.946;2023-03-11T15:30:26;4.30;1.00
5842;DHT22;2947;52.276;9.946;2023-03-11T15:32:55;4.30;1.00
5842;DHT22;2947;52.276;9.946;2023-03-11T15:35:24;4.30;1.00
5842;DHT22;2947;52.276;9.946;2023-03-11T15:41:00;4.30;1.00
5842;DHT22;2947;52.276;9.946;2023-03-11T15:43:40;5.00;1.00
5842;DHT22;2947;52.276;9.946;2023-03-11T15:46:09;4.30;1.10
5842;DHT22;2947;52.276;9.946;2023-03-11T15:48:35;4.30;1.00
5842;DHT22;2947;52.276;9.946;2023-03-11T15:51:01;4.20;1.00
5842;DHT22;2947;52.276;9.946;2023-03-11T15:53:27;4.20;1.00
5842;DHT22;2947;52.276;9.946;2023-03-11T15:55:57;4.10;1.00
5842;DHT22;2947;52.276;9.946;2023-03-11T15:58:27;4.10;1.00
5842;DHT22;2947;52.276;9.946;2023-03-11T16:00:55;4.00;1.00
5842;DHT22;2947;52.276;9.946;2023-03-11T16:03:22;4.00;1.00
5842;DHT22;2947;52.276;9.946;2023-03-11T16:05:49;3.90;1.00
5842;DHT22;2947;52.276;9.946;2023-03-11T16:08:15;3.90;1.00
5842;DHT22;2947;52.276;9.946;2023-03-11T16:10:41;3.90;1.00
5842;DHT22;2947;52.276;9.946;2023-03-11T16:13:14;3.90;1.00
5842;DHT22;2947;52.276;9.946;2023-03-11T16:15:40;3.90;1.00
5842;DHT22;2947;52.276;9.946;2023-03-11T16:18:07;3.90;1.00
5842;DHT22;2947;52.276;9.946;2023-03-11T16:20:49;3.80;1.00
5842;DHT22;2947;52.276;9.946;2023-03-11T16:23:22;3.80;1.00
5842;DHT22;2947;52.276;9.946;2023-03-11T16:25:51;3.80;1.00
5842;DHT22;2947;52.276;9.946;2023-03-11T16:28:19;3.70;1.00
5842;DHT22;2947;52.276;9.946;2023-03-11T16:30:45;3.70;1.00
5842;DHT22;2947;52.276;9.946;2023-03-11T16:33:11;3.70;1.00
5842;DHT22;2947;52.276;9.946;2023-03-11T16:35:37;3.70;1.00
5842;DHT22;2947;52.276;9.946;2023-03-11T16:38:03;3.70;1.00
5842;DHT22;2947;52.276;9.946;2023-03-11T16:40:29;3.70;1.00
5842;DHT22;2947;52.276;9.946;2023-03-11T16:43:01;4.10;1.00
5842;DHT22;2947;52.276;9.946;2023-03-11T16:45:28;3.60;21.30
5842;DHT22;2947;52.276;9.946;2023-03-11T16:47:54;3.60;47.50
5842;DHT22;2947;52.276;9.946;2023-03-11T16:50:20;3.50;21.30
5842;DHT22;2947;52.276;9.946;2023-03-11T16:52:49;3.50;1.00
5842;DHT22;2947;52.276;9.946;2023-03-11T16:55:15;3.50;1.00
5842;DHT22;2947;52.276;9.946;2023-03-11T16:57:41;3.50;2.10
5842;DHT22;2947;52.276;9.946;2023-03-11T17:00:07;3.40;1.00
5842;DHT22;2947;52.276;9.946;2023-03-11T17:02:34;3.40;1.00
5842;DHT22;2947;52.276;9.946;2023-03-11T17:05:02;3.40;1.00
5842;DHT22;2947;52.276;9.946;2023-03-11T17:07:29;3.70;1.00
5842;DHT22;2947;52.276;9.946;2023-03-11T17:09:56;3.30;1.00
5842;DHT22;2947;52.276;9.946;2023-03-11T17:12:23;3.20;1.00
5842;DHT22;2947;52.276;9.946;2023-03-11T17:14:50;3.20;1.00
5842;DHT22;2947;52.276;9.946;2023-03-11T17:17:17;3.20;1.00
5842;DHT22;2947;52.276;9.946;2023-03-11T17:19:43;3.10;1.00
5842;DHT22;2947;52.276;9.946;2023-03-11T17:22:09;3.10;16.00
5842;DHT22;2947;52.276;9.946;2023-03-11T17:24:35;3.10;37.30
5842;DHT22;2947;52.276;9.946;2023-03-11T17:27:01;3.00;81.50
5842;DHT22;2947;52.276;9.946;2023-03-11T17:29:27;3.00;99.90
5842;DHT22;2947;52.276;9.946;2023-03-11T17:31:53;2.90;99.90
5842;DHT22;2947;52.276;9.946;2023-03-11T17:34:19;2.90;99.90
5842;DHT22;2947;52.276;9.946;2023-03-11T17:36:44;2.80;99.90
5842;DHT22;2947;52.276;9.946;2023-03-11T17:39:10;2.80;99.90
5842;DHT22;2947;52.276;9.946;2023-03-11T17:41:36;3.50;99.90
5842;DHT22;2947;52.276;9.946;2023-03-11T17:44:01;2.70;99.90
5842;DHT22;2947;52.276;9.946;2023-03-11T17:46:29;2.70;99.90
5842;DHT22;2947;52.276;9.946;2023-03-11T17:48:54;2.60;99.90
5842;DHT22;2947;52.276;9.946;2023-03-11T17:51:22;2.60;99.90
5842;DHT22;2947;52.276;9.946;2023-03-11T17:53:51;2.50;1.00
5842;DHT22;2947;52.276;9.946;2023-03-11T17:56:18;2.50;1.00
5842;DHT22;2947;52.276;9.946;2023-03-11T17:58:45;2.40;1.00
5842;DHT22;2947;52.276;9.946;2023-03-11T18:01:14;2.40;1.00
5842;DHT22;2947;52.276;9.946;2023-03-11T18:03:48;2.40;1.00
5842;DHT22;2947;52.276;9.946;2023-03-11T18:06:16;2.30;1.00
5842;DHT22;2947;52.276;9.946;2023-03-11T18:08:43;2.30;1.00
5842;DHT22;2947;52.276;9.946;2023-03-11T18:11:10;2.30;1.00
5842;DHT22;2947;52.276;9.946;2023-03-11T18:13:39;2.20;1.00
5842;DHT22;2947;52.276;9.946;2023-03-11T18:16:11;2.30;1.00
5842;DHT22;2947;52.276;9.946;2023-03-11T18:18:45;2.20;1.00
5842;DHT22;2947;52.276;9.946;2023-03-11T18:21:13;2.20;1.00